sensor_id;sensor_type;location;lat;lon;timestamp;P1;durP1;ratioP1;P2;durP2;ratioP2
47433;SDS011;33184;48.774;8.918;2022-11-15T00:01:44;4.10;;;2.33;;
47433;SDS011;33184;48.774;8.918;2022-11-15T00:07:23;6.50;;;2.83;;
47433;SDS011;33184;48.774;8.918;2022-11-15T00:13:09;3.87;;;2.50;;
47433;SDS011;33184;48.774;8.918;2022-11-15T00:18:49;4.30;;;2.83;;
47433;SDS011;33184;48.774;8.918;2022-11-15T00:24:29;5.23;;;2.47;;
47433;SDS011;33184;48.774;8.918;2022-11-15T00:30:08;5.77;;;2.20;;
47433;SDS011;33184;48.774;8.918;2022-11-15T00:35:47;5.57;;;2.20;;
47433;SDS011;33184;48.774;8.918;2022-11-15T00:41:26;4.57;;;1.77;;
47433;SDS011;33184;48.774;8.918;2022-11-15T00:47:05;3.90;;;1.70;;
47433;SDS011;33184;48.774;8.918;2022-11-15T00:52:44;4.83;;;2.37;;
47433;SDS011;33184;48.774;8.918;2022-11-15T00:58:23;4.67;;;1.97;;
47433;SDS011;33184;48.774;8.918;2022-11-15T01:04:02;2.20;;;1.73;;
47433;SDS011;33184;48.774;8.918;2022-11-15T01:09:41;4.60;;;1.40;;
47433;SDS011;33184;48.774;8.918;2022-11-15T01:15:20;2.60;;;2.07;;
47433;SDS011;33184;48.774;8.918;2022-11-15T01:20:59;1.97;;;1.40;;
47433;SDS011;33184;48.774;8.918;2022-11-15T01:26:38;2.07;;;1.50;;
47433;SDS011;33184;48.774;8.918;2022-11-15T01:32:17;4.33;;;1.80;;
47433;SDS011;33184;48.774;8.918;2022-11-15T01:37:56;1.80;;;1.63;;
47433;SDS011;33184;48.774;8.918;2022-11-15T01:43:35;2.03;;;1.33;;
47433;SDS011;33184;48.774;8.918;2022-11-15T01:49:16;2.97;;;1.40;;
47433;SDS011;33184;48.774;8.918;2022-11-15T02:00:54;4.50;;;1.40;;
47433;SDS011;33184;48.774;8.918;2022-11-15T02:06:33;2.27;;;1.30;;
47433;SDS011;33184;48.774;8.918;2022-11-15T02:12:15;2.87;;;1.30;;
47433;SDS011;33184;48.774;8.918;2022-11-15T02:30:02;2.30;;;2.10;;
47433;SDS011;33184;48.774;8.918;2022-11-15T02:35:57;2.40;;;1.73;;
47433;SDS011;33184;48.774;8.918;2022-11-15T02:41:49;2.30;;;1.70;;
47433;SDS011;33184;48.774;8.918;2022-11-15T02:47:34;4.70;;;1.70;;
47433;SDS011;33184;48.774;8.918;2022-11-15T02:53:23;4.33;;;1.73;;
47433;SDS011;33184;48.774;8.918;2022-11-15T03:10:42;2.50;;;1.50;;
47433;SDS011;33184;48.774;8.918;2022-11-15T03:22:32;4.80;;;1.57;;
47433;SDS011;33184;48.774;8.918;2022-11-15T03:28:15;4.53;;;1.60;;
47433;SDS011;33184;48.774;8.918;2022-11-15T03:33:58;5.00;;;1.90;;
47433;SDS011;33184;48.774;8.918;2022-11-15T03:39:39;2.73;;;1.57;;
47433;SDS011;33184;48.774;8.918;2022-11-15T03:45:19;2.73;;;1.50;;
47433;SDS011;33184;48.774;8.918;2022-11-15T03:51:03;3.13;;;1.63;;
47433;SDS011;33184;48.774;8.918;2022-11-15T03:56:43;2.10;;;1.40;;
47433;SDS011;33184;48.774;8.918;2022-11-15T04:02:22;3.60;;;1.63;;
47433;SDS011;33184;48.774;8.918;2022-11-15T04:08:01;3.00;;;1.87;;
47433;SDS011;33184;48.774;8.918;2022-11-15T04:13:40;3.87;;;2.30;;
47433;SDS011;33184;48.774;8.918;2022-11-15T04:19:18;3.37;;;2.33;;
47433;SDS011;33184;48.774;8.918;2022-11-15T04:25:16;2.53;;;1.20;;
47433;SDS011;33184;48.774;8.918;2022-11-15T04:30:55;5.27;;;2.30;;
47433;SDS011;33184;48.774;8.918;2022-11-15T04:36:34;2.13;;;1.50;;
47433;SDS011;33184;48.774;8.918;2022-11-15T04:42:32;2.43;;;1.67;;
47433;SDS011;33184;48.774;8.918;2022-11-15T04:48:11;2.13;;;1.50;;
47433;SDS011;33184;48.774;8.918;2022-11-15T04:53:50;4.13;;;1.87;;
47433;SDS011;33184;48.774;8.918;2022-11-15T04:59:29;6.07;;;2.23;;
47433;SDS011;33184;48.774;8.918;2022-11-15T05:05:08;8.77;;;4.43;;
47433;SDS011;33184;48.774;8.918;2022-11-15T05:10:47;20.40;;;9.53;;
47433;SDS011;33184;48.774;8.918;2022-11-15T05:16:26;31.70;;;12.43;;
47433;SDS011;33184;48.774;8.918;2022-11-15T05:22:05;48.73;;;22.90;;
47433;SDS011;33184;48.774;8.918;2022-11-15T05:27:44;118.50;;;58.30;;
47433;SDS011;33184;48.774;8.918;2022-11-15T05:33:23;61.77;;;32.63;;
47433;SDS011;33184;48.774;8.918;2022-11-15T05:39:02;9.10;;;4.73;;
47433;SDS011;33184;48.774;8.918;2022-11-15T05:44:44;66.03;;;33.83;;
47433;SDS011;33184;48.774;8.918;2022-11-15T05:50:26;42.87;;;22.20;;
47433;SDS011;33184;48.774;8.918;2022-11-15T05:56:06;10.53;;;4.80;;
47433;SDS011;33184;48.774;8.918;2022-11-15T06:01:47;10.33;;;4.40;;
47433;SDS011;33184;48.774;8.918;2022-11-15T06:07:28;6.27;;;3.23;;
47433;SDS011;33184;48.774;8.918;2022-11-15T06:13:08;21.97;;;13.90;;
47433;SDS011;33184;48.774;8.918;2022-11-15T06:18:47;23.17;;;15.33;;
47433;SDS011;33184;48.774;8.918;2022-11-15T06:24:26;12.77;;;10.03;;
47433;SDS011;33184;48.774;8.918;2022-11-15T06:30:05;20.83;;;16.73;;
47433;SDS011;33184;48.774;8.918;2022-11-15T06:35:44;3.53;;;2.83;;
47433;SDS011;33184;48.774;8.918;2022-11-15T06:41:23;5.67;;;4.37;;
47433;SDS011;33184;48.774;8.918;2022-11-15T06:47:02;3.43;;;1.83;;
47433;SDS011;33184;48.774;8.918;2022-11-15T06:52:41;3.27;;;1.70;;
47433;SDS011;33184;48.774;8.918;2022-11-15T06:58:20;4.93;;;2.50;;
47433;SDS011;33184;48.774;8.918;2022-11-15T07:04:00;4.07;;;1.73;;
47433;SDS011;33184;48.774;8.918;2022-11-15T07:09:39;2.53;;;1.60;;
47433;SDS011;33184;48.774;8.918;2022-11-15T07:15:19;1.63;;;1.50;;
47433;SDS011;33184;48.774;8.918;2022-11-15T07:21:04;6.37;;;1.77;;
47433;SDS011;33184;48.774;8.918;2022-11-15T07:26:44;6.83;;;2.10;;
47433;SDS011;33184;48.774;8.918;2022-11-15T07:32:24;6.27;;;1.77;;
47433;SDS011;33184;48.774;8.918;2022-11-15T07:38:04;4.33;;;2.50;;
47433;SDS011;33184;48.774;8.918;2022-11-15T07:43:43;5.90;;;2.10;;
47433;SDS011;33184;48.774;8.918;2022-11-15T07:49:22;4.03;;;1.93;;
47433;SDS011;33184;48.774;8.918;2022-11-15T07:55:01;3.23;;;2.00;;
47433;SDS011;33184;48.774;8.918;2022-11-15T08:00:40;3.13;;;1.70;;
47433;SDS011;33184;48.774;8.918;2022-11-15T08:06:19;4.13;;;2.03;;
47433;SDS011;33184;48.774;8.918;2022-11-15T08:11:58;4.77;;;1.63;;
47433;SDS011;33184;48.774;8.918;2022-11-15T08:17:37;4.63;;;1.90;;
47433;SDS011;33184;48.774;8.918;2022-11-15T08:23:16;4.27;;;1.30;;
47433;SDS011;33184;48.774;8.918;2022-11-15T08:28:56;7.23;;;1.57;;
47433;SDS011;33184;48.774;8.918;2022-11-15T08:34:35;11.83;;;1.30;;
47433;SDS011;33184;48.774;8.918;2022-11-15T08:40:14;2.23;;;1.47;;
47433;SDS011;33184;48.774;8.918;2022-11-15T08:45:57;3.27;;;1.17;;
47433;SDS011;33184;48.774;8.918;2022-11-15T08:51:37;4.63;;;1.20;;
47433;SDS011;33184;48.774;8.918;2022-11-15T08:57:16;4.33;;;1.10;;
47433;SDS011;33184;48.774;8.918;2022-11-15T09:02:55;4.60;;;1.57;;
47433;SDS011;33184;48.774;8.918;2022-11-15T09:08:34;3.73;;;1.00;;
47433;SDS011;33184;48.774;8.918;2022-11-15T09:14:14;12.07;;;4.80;;
47433;SDS011;33184;48.774;8.918;2022-11-15T09:19:53;6.47;;;2.40;;
47433;SDS011;33184;48.774;8.918;2022-11-15T09:25:32;1.30;;;1.00;;
47433;SDS011;33184;48.774;8.918;2022-11-15T09:31:11;1.50;;;1.13;;
47433;SDS011;33184;48.774;8.918;2022-11-15T09:36:50;2.00;;;1.03;;
47433;SDS011;33184;48.774;8.918;2022-11-15T09:42:36;6.53;;;1.05;;
47433;SDS011;33184;48.774;8.918;2022-11-15T09:48:49;2.10;;;0.90;;
47433;SDS011;33184;48.774;8.918;2022-11-15T09:54:39;2.30;;;1.10;;
47433;SDS011;33184;48.774;8.918;2022-11-15T10:05:34;2.97;;;1.20;;
47433;SDS011;33184;48.774;8.918;2022-11-15T10:11:03;3.30;;;1.17;;
47433;SDS011;33184;48.774;8.918;2022-11-15T10:27:41;3.95;;;1.20;;
47433;SDS011;33184;48.774;8.918;2022-11-15T10:49:36;5.82;;;1.42;;
47433;SDS011;33184;48.774;8.918;2022-11-15T11:00:34;4.05;;;1.27;;
47433;SDS011;33184;48.774;8.918;2022-11-15T11:06:07;7.25;;;1.70;;
47433;SDS011;33184;48.774;8.918;2022-11-15T11:17:11;11.45;;;2.22;;
47433;SDS011;33184;48.774;8.918;2022-11-15T11:28:45;1.45;;;0.68;;
47433;SDS011;33184;48.774;8.918;2022-11-15T11:51:18;4.07;;;1.83;;
47433;SDS011;33184;48.774;8.918;2022-11-15T11:56:44;6.90;;;3.30;;
47433;SDS011;33184;48.774;8.918;2022-11-15T12:07:54;2.47;;;1.33;;
47433;SDS011;33184;48.774;8.918;2022-11-15T12:13:38;4.00;;;1.07;;
47433;SDS011;33184;48.774;8.918;2022-11-15T12:19:03;2.40;;;1.02;;
47433;SDS011;33184;48.774;8.918;2022-11-15T12:29:46;1.92;;;0.60;;
47433;SDS011;33184;48.774;8.918;2022-11-15T12:41:13;3.25;;;1.13;;
47433;SDS011;33184;48.774;8.918;2022-11-15T12:57:32;2.30;;;1.08;;
47433;SDS011;33184;48.774;8.918;2022-11-15T13:08:52;6.82;;;1.42;;
47433;SDS011;33184;48.774;8.918;2022-11-15T13:20:28;5.18;;;1.20;;
47433;SDS011;33184;48.774;8.918;2022-11-15T13:31:34;2.70;;;1.00;;
47433;SDS011;33184;48.774;8.918;2022-11-15T13:36:57;5.28;;;1.05;;
47433;SDS011;33184;48.774;8.918;2022-11-15T13:42:19;5.65;;;0.90;;
47433;SDS011;33184;48.774;8.918;2022-11-15T13:47:40;5.13;;;1.30;;
47433;SDS011;33184;48.774;8.918;2022-11-15T13:53:02;3.15;;;0.93;;
47433;SDS011;33184;48.774;8.918;2022-11-15T13:58:24;2.13;;;1.05;;
47433;SDS011;33184;48.774;8.918;2022-11-15T14:03:55;1.38;;;1.10;;
47433;SDS011;33184;48.774;8.918;2022-11-15T14:09:25;2.60;;;1.00;;
47433;SDS011;33184;48.774;8.918;2022-11-15T14:15:18;1.90;;;1.45;;
47433;SDS011;33184;48.774;8.918;2022-11-15T14:20:39;1.27;;;0.90;;
47433;SDS011;33184;48.774;8.918;2022-11-15T14:26:00;3.30;;;0.90;;
47433;SDS011;33184;48.774;8.918;2022-11-15T14:31:21;3.53;;;2.10;;
47433;SDS011;33184;48.774;8.918;2022-11-15T14:36:42;6.60;;;1.52;;
47433;SDS011;33184;48.774;8.918;2022-11-15T14:42:03;3.55;;;0.82;;
47433;SDS011;33184;48.774;8.918;2022-11-15T14:47:25;14.10;;;2.08;;
47433;SDS011;33184;48.774;8.918;2022-11-15T14:52:46;28.35;;;10.68;;
47433;SDS011;33184;48.774;8.918;2022-11-15T14:58:08;10.13;;;4.45;;
47433;SDS011;33184;48.774;8.918;2022-11-15T15:03:29;3.03;;;1.30;;
47433;SDS011;33184;48.774;8.918;2022-11-15T15:08:49;2.55;;;0.90;;
47433;SDS011;33184;48.774;8.918;2022-11-15T15:14:11;1.65;;;0.70;;
47433;SDS011;33184;48.774;8.918;2022-11-15T15:19:33;1.45;;;0.60;;
47433;SDS011;33184;48.774;8.918;2022-11-15T15:24:54;2.00;;;1.00;;
47433;SDS011;33184;48.774;8.918;2022-11-15T15:30:14;0.68;;;0.60;;
47433;SDS011;33184;48.774;8.918;2022-11-15T15:35:35;1.13;;;0.68;;
47433;SDS011;33184;48.774;8.918;2022-11-15T15:40:56;1.67;;;1.00;;
47433;SDS011;33184;48.774;8.918;2022-11-15T15:46:18;2.90;;;0.88;;
47433;SDS011;33184;48.774;8.918;2022-11-15T15:51:39;1.05;;;0.70;;
47433;SDS011;33184;48.774;8.918;2022-11-15T15:57:00;2.42;;;1.02;;
47433;SDS011;33184;48.774;8.918;2022-11-15T16:02:20;3.10;;;1.00;;
47433;SDS011;33184;48.774;8.918;2022-11-15T16:07:41;1.48;;;0.80;;
47433;SDS011;33184;48.774;8.918;2022-11-15T16:13:03;3.45;;;1.20;;
47433;SDS011;33184;48.774;8.918;2022-11-15T16:18:24;1.73;;;1.00;;
47433;SDS011;33184;48.774;8.918;2022-11-15T16:23:44;4.03;;;1.23;;
47433;SDS011;33184;48.774;8.918;2022-11-15T16:29:05;5.45;;;2.42;;
47433;SDS011;33184;48.774;8.918;2022-11-15T16:34:27;8.38;;;1.25;;
47433;SDS011;33184;48.774;8.918;2022-11-15T16:39:47;8.23;;;2.42;;
47433;SDS011;33184;48.774;8.918;2022-11-15T16:45:10;7.72;;;1.25;;
47433;SDS011;33184;48.774;8.918;2022-11-15T16:50:33;9.00;;;1.45;;
47433;SDS011;33184;48.774;8.918;2022-11-15T16:56:00;6.10;;;1.30;;
47433;SDS011;33184;48.774;8.918;2022-11-15T17:01:22;6.03;;;2.05;;
47433;SDS011;33184;48.774;8.918;2022-11-15T17:06:46;5.75;;;2.00;;
47433;SDS011;33184;48.774;8.918;2022-11-15T17:12:07;3.72;;;2.33;;
47433;SDS011;33184;48.774;8.918;2022-11-15T17:17:28;4.22;;;2.83;;
47433;SDS011;33184;48.774;8.918;2022-11-15T17:22:49;3.25;;;1.58;;
47433;SDS011;33184;48.774;8.918;2022-11-15T17:28:11;2.90;;;1.55;;
47433;SDS011;33184;48.774;8.918;2022-11-15T17:33:32;2.75;;;1.70;;
47433;SDS011;33184;48.774;8.918;2022-11-15T17:38:52;3.15;;;1.95;;
47433;SDS011;33184;48.774;8.918;2022-11-15T17:44:13;3.00;;;1.38;;
47433;SDS011;33184;48.774;8.918;2022-11-15T17:49:33;3.08;;;1.70;;
47433;SDS011;33184;48.774;8.918;2022-11-15T17:54:58;3.20;;;1.40;;
47433;SDS011;33184;48.774;8.918;2022-11-15T18:00:19;6.72;;;2.55;;
47433;SDS011;33184;48.774;8.918;2022-11-15T18:05:40;7.80;;;2.47;;
47433;SDS011;33184;48.774;8.918;2022-11-15T18:11:15;3.57;;;2.10;;
47433;SDS011;33184;48.774;8.918;2022-11-15T18:16:40;6.97;;;3.13;;
47433;SDS011;33184;48.774;8.918;2022-11-15T18:22:01;5.25;;;3.42;;
47433;SDS011;33184;48.774;8.918;2022-11-15T18:27:24;5.28;;;2.88;;
47433;SDS011;33184;48.774;8.918;2022-11-15T18:32:45;5.05;;;3.80;;
47433;SDS011;33184;48.774;8.918;2022-11-15T18:38:05;3.80;;;3.17;;
47433;SDS011;33184;48.774;8.918;2022-11-15T18:43:26;4.50;;;2.50;;
47433;SDS011;33184;48.774;8.918;2022-11-15T18:48:47;9.63;;;5.68;;
47433;SDS011;33184;48.774;8.918;2022-11-15T18:54:12;18.02;;;8.10;;
47433;SDS011;33184;48.774;8.918;2022-11-15T18:59:33;13.35;;;5.30;;
47433;SDS011;33184;48.774;8.918;2022-11-15T19:04:54;7.20;;;3.45;;
47433;SDS011;33184;48.774;8.918;2022-11-15T19:10:14;5.38;;;3.63;;
47433;SDS011;33184;48.774;8.918;2022-11-15T19:15:35;8.48;;;4.28;;
47433;SDS011;33184;48.774;8.918;2022-11-15T19:20:56;6.63;;;4.40;;
47433;SDS011;33184;48.774;8.918;2022-11-15T19:26:22;7.72;;;4.97;;
47433;SDS011;33184;48.774;8.918;2022-11-15T19:31:43;8.52;;;6.03;;
47433;SDS011;33184;48.774;8.918;2022-11-15T19:37:04;6.97;;;4.78;;
47433;SDS011;33184;48.774;8.918;2022-11-15T19:42:25;5.88;;;4.40;;
47433;SDS011;33184;48.774;8.918;2022-11-15T19:47:45;5.65;;;4.68;;
47433;SDS011;33184;48.774;8.918;2022-11-15T19:53:06;7.97;;;5.65;;
47433;SDS011;33184;48.774;8.918;2022-11-15T19:58:26;6.22;;;4.50;;
47433;SDS011;33184;48.774;8.918;2022-11-15T20:03:49;6.68;;;5.47;;
47433;SDS011;33184;48.774;8.918;2022-11-15T20:09:13;8.75;;;6.13;;
47433;SDS011;33184;48.774;8.918;2022-11-15T20:14:35;9.57;;;7.20;;
47433;SDS011;33184;48.774;8.918;2022-11-15T20:19:55;8.73;;;5.45;;
47433;SDS011;33184;48.774;8.918;2022-11-15T20:25:17;17.85;;;8.75;;
47433;SDS011;33184;48.774;8.918;2022-11-15T20:30:38;7.10;;;4.93;;
47433;SDS011;33184;48.774;8.918;2022-11-15T20:36:02;10.38;;;6.38;;
47433;SDS011;33184;48.774;8.918;2022-11-15T20:41:30;10.52;;;4.43;;
47433;SDS011;33184;48.774;8.918;2022-11-15T20:46:51;5.57;;;3.63;;
47433;SDS011;33184;48.774;8.918;2022-11-15T20:52:11;5.22;;;3.90;;
47433;SDS011;33184;48.774;8.918;2022-11-15T20:57:32;6.60;;;3.83;;
47433;SDS011;33184;48.774;8.918;2022-11-15T21:02:52;5.85;;;3.97;;
47433;SDS011;33184;48.774;8.918;2022-11-15T21:08:13;7.35;;;4.57;;
47433;SDS011;33184;48.774;8.918;2022-11-15T21:13:34;7.47;;;5.10;;
47433;SDS011;33184;48.774;8.918;2022-11-15T21:18:55;9.00;;;5.05;;
47433;SDS011;33184;48.774;8.918;2022-11-15T21:24:16;6.20;;;3.90;;
47433;SDS011;33184;48.774;8.918;2022-11-15T21:29:37;6.47;;;5.63;;
47433;SDS011;33184;48.774;8.918;2022-11-15T21:34:58;7.60;;;6.40;;
47433;SDS011;33184;48.774;8.918;2022-11-15T21:40:19;10.85;;;7.00;;
47433;SDS011;33184;48.774;8.918;2022-11-15T21:45:39;11.30;;;7.63;;
47433;SDS011;33184;48.774;8.918;2022-11-15T21:51:01;10.07;;;6.82;;
47433;SDS011;33184;48.774;8.918;2022-11-15T21:56:25;7.88;;;6.10;;
47433;SDS011;33184;48.774;8.918;2022-11-15T22:01:46;9.63;;;6.75;;
47433;SDS011;33184;48.774;8.918;2022-11-15T22:07:26;8.73;;;6.22;;
47433;SDS011;33184;48.774;8.918;2022-11-15T22:12:46;7.65;;;5.70;;
47433;SDS011;33184;48.774;8.918;2022-11-15T22:18:06;6.55;;;4.47;;
47433;SDS011;33184;48.774;8.918;2022-11-15T22:23:28;6.60;;;4.15;;
47433;SDS011;33184;48.774;8.918;2022-11-15T22:28:50;4.97;;;3.20;;
47433;SDS011;33184;48.774;8.918;2022-11-15T22:34:10;5.15;;;3.38;;
47433;SDS011;33184;48.774;8.918;2022-11-15T22:39:31;5.57;;;3.63;;
47433;SDS011;33184;48.774;8.918;2022-11-15T22:44:51;11.15;;;6.68;;
47433;SDS011;33184;48.774;8.918;2022-11-15T22:50:12;6.80;;;5.47;;
47433;SDS011;33184;48.774;8.918;2022-11-15T22:55:33;6.80;;;4.90;;
47433;SDS011;33184;48.774;8.918;2022-11-15T23:00:54;6.47;;;4.90;;
47433;SDS011;33184;48.774;8.918;2022-11-15T23:06:16;9.40;;;5.57;;
47433;SDS011;33184;48.774;8.918;2022-11-15T23:11:37;6.32;;;5.72;;
47433;SDS011;33184;48.774;8.918;2022-11-15T23:17:16;8.02;;;5.38;;
47433;SDS011;33184;48.774;8.918;2022-11-15T23:22:36;9.60;;;5.07;;
47433;SDS011;33184;48.774;8.918;2022-11-15T23:28:06;8.05;;;5.28;;
47433;SDS011;33184;48.774;8.918;2022-11-15T23:33:26;8.07;;;4.38;;
47433;SDS011;33184;48.774;8.918;2022-11-15T23:39:06;6.20;;;3.78;;
47433;SDS011;33184;48.774;8.918;2022-11-15T23:44:27;8.77;;;4.05;;
47433;SDS011;33184;48.774;8.918;2022-11-15T23:49:48;6.82;;;5.05;;
47433;SDS011;33184;48.774;8.918;2022-11-15T23:55:08;5.38;;;3.15;;
